Time;durP1;ratioP1;P1;durP2;ratioP2;P2;SDS_P1;SDS_P2;PMS_P1;PMS_P2;Temp;Humidity;BMP_temperature;BMP_pressure;BME280_temperature;BME280_humidity;BME280_pressure;Samples;Min_cycle;Max_cycle;Signal;HPM_P1;HPM_P2
2021/04/09 00:01:46;;;;;;;22.98;14.40;;;5.40;68.70;;;;;;5031910;28;20472;-47
2021/04/09 00:04:15;;;;;;;21.13;13.68;;;5.30;68.60;;;;;;5017633;28;20048;-48
2021/04/09 00:06:42;;;;;;;21.05;13.30;;;5.20;68.80;;;;;;5031003;28;20044;-53
2021/04/09 00:09:08;;;;;;;24.60;13.77;;;5.20;68.90;;;;;;5018618;28;20117;-48
2021/04/09 00:11:36;;;;;;;20.50;13.60;;;5.20;69.10;;;;;;5017248;28;20041;-47
2021/04/09 00:14:04;;;;;;;23.02;13.77;;;5.30;69.10;;;;;;5020772;28;20104;-47
2021/04/09 00:16:30;;;;;;;21.65;13.70;;;5.30;69.00;;;;;;5026837;28;20410;-48
2021/04/09 00:18:56;;;;;;;22.00;13.43;;;5.20;69.10;;;;;;5031353;28;20133;-48
2021/04/09 00:21:21;;;;;;;23.40;14.68;;;5.10;69.10;;;;;;5028948;28;20814;-48
2021/04/09 00:23:47;;;;;;;22.88;13.50;;;5.20;69.30;;;;;;5031522;28;20042;-47
2021/04/09 00:26:14;;;;;;;20.02;12.65;;;5.20;69.40;;;;;;5027837;28;20049;-47
2021/04/09 00:28:39;;;;;;;22.50;13.23;;;5.20;69.20;;;;;;5024328;28;20034;-48
2021/04/09 00:31:06;;;;;;;21.38;13.07;;;5.10;69.40;;;;;;5022321;28;20045;-47
2021/04/09 00:33:33;;;;;;;23.38;13.43;;;5.10;69.40;;;;;;5020075;28;20069;-47
2021/04/09 00:35:58;;;;;;;26.73;13.80;;;5.10;70.00;;;;;;5029838;28;20120;-47
2021/04/09 00:38:24;;;;;;;25.85;14.20;;;5.20;69.70;;;;;;5031376;28;20502;-48
2021/04/09 00:40:50;;;;;;;20.45;14.05;;;5.10;69.60;;;;;;5028661;28;20548;-50
2021/04/09 00:43:15;;;;;;;21.98;13.52;;;5.00;70.10;;;;;;5033823;28;20037;-47
2021/04/09 00:45:41;;;;;;;24.92;14.10;;;5.10;69.90;;;;;;5029538;28;20183;-47
2021/04/09 00:48:09;;;;;;;20.58;13.82;;;5.00;69.80;;;;;;5028930;28;20050;-48
2021/04/09 00:50:35;;;;;;;25.48;13.35;;;5.00;69.80;;;;;;5035436;28;20045;-49
2021/04/09 00:53:02;;;;;;;25.98;14.07;;;5.00;69.80;;;;;;5034378;28;20498;-48
2021/04/09 00:55:28;;;;;;;20.52;13.30;;;5.00;70.20;;;;;;5030159;28;20053;-47
2021/04/09 00:57:56;;;;;;;25.40;14.43;;;5.00;70.60;;;;;;5033147;28;20049;-47
2021/04/09 01:00:23;;;;;;;24.02;13.40;;;5.00;70.30;;;;;;5033490;28;20030;-48
2021/04/09 01:02:49;;;;;;;22.98;13.70;;;5.10;69.90;;;;;;5032295;28;20072;-49
2021/04/09 01:05:16;;;;;;;21.98;14.27;;;5.00;69.90;;;;;;5034622;28;20065;-49
2021/04/09 01:07:43;;;;;;;26.55;13.82;;;5.10;70.20;;;;;;5029513;28;20071;-50
2021/04/09 01:10:11;;;;;;;23.48;14.15;;;5.10;70.30;;;;;;5014157;28;20495;-48
2021/04/09 01:12:37;;;;;;;21.58;13.80;;;5.10;70.10;;;;;;5030385;28;20120;-50
2021/04/09 01:15:05;;;;;;;21.33;13.77;;;5.00;70.40;;;;;;5020665;28;20052;-47
2021/04/09 01:17:48;;;;;;;23.38;13.43;;;5.00;70.60;;;;;;5033803;28;20076;-48
2021/04/09 01:20:38;;;;;;;21.75;14.40;;;5.00;71.10;;;;;;5014289;28;20042;-47
2021/04/09 01:23:25;;;;;;;25.10;14.68;;;5.00;71.00;;;;;;5029720;28;20056;-48
2021/04/09 01:26:12;;;;;;;19.83;13.70;;;5.10;70.70;;;;;;5032825;28;20038;-48
2021/04/09 01:29:23;;;;;;;20.77;13.52;;;5.10;70.70;;;;;;5034511;28;20049;-49
2021/04/09 01:31:57;;;;;;;25.33;14.38;;;5.00;70.80;;;;;;5030606;28;20056;-49
2021/04/09 01:34:29;;;;;;;27.10;14.52;;;5.10;70.90;;;;;;5028480;28;20049;-47
2021/04/09 01:36:58;;;;;;;27.02;14.02;;;5.10;70.90;;;;;;5029189;28;20037;-47
2021/04/09 01:39:40;;;;;;;27.10;14.40;;;5.20;70.10;;;;;;5033526;28;20037;-48
2021/04/09 01:42:10;;;;;;;24.17;13.65;;;5.20;70.50;;;;;;5011296;28;20422;-47
2021/04/09 01:44:42;;;;;;;23.95;14.50;;;5.10;70.50;;;;;;5033669;28;20037;-48
2021/04/09 01:47:08;;;;;;;21.33;14.10;;;5.10;70.80;;;;;;5019610;28;20041;-50
2021/04/09 01:49:38;;;;;;;21.60;13.43;;;5.20;70.40;;;;;;5021396;28;20046;-48
2021/04/09 01:52:07;;;;;;;24.80;14.05;;;5.20;70.50;;;;;;5020655;28;20092;-48
2021/04/09 01:54:33;;;;;;;25.35;14.32;;;5.20;70.40;;;;;;5024313;28;20126;-48
2021/04/09 01:57:00;;;;;;;23.40;13.90;;;5.30;70.50;;;;;;5013076;28;20498;-48
2021/04/09 01:59:27;;;;;;;20.77;13.45;;;5.30;70.70;;;;;;5026785;28;20037;-53
2021/04/09 02:01:53;;;;;;;23.02;12.90;;;5.40;70.10;;;;;;5019945;28;20516;-48
2021/04/09 02:04:20;;;;;;;21.27;12.90;;;5.40;69.90;;;;;;5028173;28;20609;-49
2021/04/09 02:06:49;;;;;;;22.20;14.15;;;5.40;69.70;;;;;;5014900;28;20088;-48
2021/04/09 02:09:16;;;;;;;26.83;13.43;;;5.40;70.10;;;;;;5026644;28;20379;-48
2021/04/09 02:11:42;;;;;;;22.40;13.77;;;5.40;69.80;;;;;;5028312;28;20053;-48
2021/04/09 02:14:14;;;;;;;22.98;13.73;;;5.40;70.00;;;;;;5030417;28;20037;-50
2021/04/09 02:16:42;;;;;;;23.27;13.97;;;5.40;70.10;;;;;;5030785;28;20514;-50
2021/04/09 02:19:08;;;;;;;27.38;13.80;;;5.40;70.10;;;;;;5032719;28;20072;-48
2021/04/09 02:21:36;;;;;;;22.42;12.68;;;5.40;70.10;;;;;;5033060;28;20440;-49
2021/04/09 02:24:05;;;;;;;22.13;13.93;;;5.40;70.00;;;;;;5031280;28;20511;-49
2021/04/09 02:26:31;;;;;;;21.40;13.52;;;5.50;70.00;;;;;;5027907;28;20038;-48
2021/04/09 02:28:59;;;;;;;23.02;13.43;;;5.50;70.00;;;;;;5031740;28;20033;-49
2021/04/09 02:31:25;;;;;;;28.48;13.40;;;5.50;69.90;;;;;;5018036;28;20045;-48
2021/04/09 02:33:51;;;;;;;22.88;12.75;;;5.50;69.80;;;;;;5025609;28;20048;-51
2021/04/09 02:36:23;;;;;;;23.95;13.18;;;5.50;70.00;;;;;;5018919;28;20037;-49
2021/04/09 02:39:12;;;;;;;22.83;14.05;;;5.50;69.80;;;;;;5021137;28;20368;-49
2021/04/09 02:41:42;;;;;;;20.95;13.52;;;5.50;69.90;;;;;;5021138;28;20379;-48
2021/04/09 02:44:09;;;;;;;24.17;13.50;;;5.50;69.90;;;;;;5028565;28;20037;-50
2021/04/09 02:46:50;;;;;;;21.60;13.40;;;5.50;70.00;;;;;;5022955;28;20041;-51
2021/04/09 02:49:29;;;;;;;22.73;13.32;;;5.60;70.40;;;;;;5023909;28;20082;-49
2021/04/09 02:51:58;;;;;;;20.27;13.85;;;5.60;70.40;;;;;;5030824;28;20038;-49
2021/04/09 02:54:24;;;;;;;26.98;14.07;;;5.50;70.50;;;;;;5023836;28;20038;-49
2021/04/09 02:56:54;;;;;;;25.75;13.63;;;5.50;70.60;;;;;;5021250;28;20486;-49
2021/04/09 02:59:20;;;;;;;22.80;13.85;;;5.50;70.90;;;;;;5017259;28;20089;-49
2021/04/09 03:01:47;;;;;;;23.48;14.40;;;5.60;71.00;;;;;;5021787;28;20045;-49
2021/04/09 03:04:14;;;;;;;26.95;14.18;;;5.50;71.00;;;;;;5026527;28;20117;-49
2021/04/09 03:06:43;;;;;;;23.88;13.95;;;5.50;71.00;;;;;;5020924;28;20057;-48
2021/04/09 03:09:09;;;;;;;26.30;13.73;;;5.60;71.10;;;;;;5021231;28;20042;-51
2021/04/09 03:11:35;;;;;;;22.60;14.20;;;5.60;71.40;;;;;;5003863;28;20046;-48
2021/04/09 03:14:02;;;;;;;21.95;13.43;;;5.60;71.40;;;;;;5028209;28;20042;-49
2021/04/09 03:16:43;;;;;;;25.92;14.50;;;5.60;71.60;;;;;;5021744;28;20072;-50
2021/04/09 03:19:10;;;;;;;22.73;14.23;;;5.60;71.60;;;;;;5026108;28;20044;-49
2021/04/09 03:21:36;;;;;;;20.90;13.73;;;5.60;71.90;;;;;;5029189;28;20050;-51
2021/04/09 03:24:03;;;;;;;24.90;14.07;;;5.60;71.80;;;;;;5026618;28;20034;-52
2021/04/09 03:26:29;;;;;;;23.50;13.90;;;5.60;71.70;;;;;;5016982;28;20046;-49
2021/04/09 03:28:54;;;;;;;22.88;12.63;;;5.70;71.80;;;;;;5029863;28;20124;-49
2021/04/09 03:31:20;;;;;;;22.35;13.73;;;5.70;71.80;;;;;;5024580;28;20045;-48
2021/04/09 03:33:45;;;;;;;23.38;13.65;;;5.60;71.90;;;;;;5031126;28;20612;-48
2021/04/09 03:36:11;;;;;;;22.05;13.05;;;5.70;72.20;;;;;;5026255;28;20068;-48
2021/04/09 03:38:37;;;;;;;20.75;11.98;;;5.70;72.40;;;;;;5022403;28;20038;-48
2021/04/09 03:41:03;;;;;;;20.90;11.95;;;5.70;72.20;;;;;;5031290;28;20045;-48
2021/04/09 03:43:29;;;;;;;19.48;12.00;;;5.80;72.00;;;;;;5025385;28;20257;-48
2021/04/09 03:45:54;;;;;;;18.73;11.00;;;5.90;71.50;;;;;;5029878;28;20045;-48
2021/04/09 03:48:20;;;;;;;18.42;11.68;;;5.90;71.30;;;;;;5026124;28;20380;-48
2021/04/09 03:50:46;;;;;;;18.05;11.27;;;6.00;71.10;;;;;;5023355;28;20056;-50
2021/04/09 03:53:12;;;;;;;22.70;12.20;;;6.00;70.70;;;;;;5030648;28;20072;-48
2021/04/09 03:55:38;;;;;;;17.85;11.10;;;6.10;70.80;;;;;;5031436;28;20038;-49
2021/04/09 03:58:04;;;;;;;24.13;12.65;;;6.10;70.70;;;;;;5028337;28;20449;-48
2021/04/09 04:00:30;;;;;;;18.85;11.23;;;6.10;70.40;;;;;;5020671;28;20050;-49
2021/04/09 04:02:55;;;;;;;22.92;11.75;;;6.20;70.60;;;;;;5016451;28;20033;-48
2021/04/09 04:05:21;;;;;;;20.35;10.82;;;6.20;70.40;;;;;;5024367;28;20504;-49
2021/04/09 04:07:48;;;;;;;15.73;11.55;;;6.20;70.10;;;;;;5027450;28;20047;-49
2021/04/09 04:10:14;;;;;;;16.90;10.73;;;6.30;69.60;;;;;;5018794;28;20033;-49
2021/04/09 04:12:40;;;;;;;23.40;11.75;;;6.30;69.90;;;;;;5030317;28;20042;-49
2021/04/09 04:15:06;;;;;;;18.13;11.10;;;6.30;69.90;;;;;;5016581;28;20098;-49
2021/04/09 04:17:32;;;;;;;19.25;11.55;;;6.30;69.80;;;;;;5025842;28;20053;-49
2021/04/09 04:19:59;;;;;;;20.10;10.95;;;6.30;70.40;;;;;;5031082;28;20041;-49
2021/04/09 04:22:25;;;;;;;16.02;10.80;;;6.30;69.60;;;;;;5030347;28;20128;-51
2021/04/09 04:24:50;;;;;;;18.20;10.88;;;6.30;70.20;;;;;;5022335;28;20125;-51
2021/04/09 04:27:16;;;;;;;20.15;11.63;;;6.20;70.30;;;;;;5019863;28;20056;-49
2021/04/09 04:29:42;;;;;;;21.48;11.07;;;6.20;70.40;;;;;;5029517;28;20044;-52
2021/04/09 04:32:07;;;;;;;17.33;11.10;;;6.20;70.40;;;;;;5030250;28;20037;-51
2021/04/09 04:34:33;;;;;;;16.75;11.02;;;6.30;70.50;;;;;;5025573;28;20110;-48
2021/04/09 04:36:59;;;;;;;21.35;11.88;;;6.30;70.70;;;;;;5030417;28;20045;-47
2021/04/09 04:39:24;;;;;;;22.75;10.88;;;6.20;70.90;;;;;;5029534;28;20045;-46
2021/04/09 04:41:52;;;;;;;20.15;11.57;;;6.20;71.10;;;;;;5023555;28;20034;-49
2021/04/09 04:44:18;;;;;;;17.85;11.20;;;6.20;71.10;;;;;;5027166;28;20043;-50
2021/04/09 04:46:44;;;;;;;19.15;11.07;;;6.10;71.30;;;;;;5015806;28;20112;-48
2021/04/09 04:49:10;;;;;;;20.48;12.13;;;6.20;71.30;;;;;;5020453;28;20490;-50
2021/04/09 04:51:36;;;;;;;19.77;11.95;;;6.20;71.30;;;;;;5022172;28;20046;-48
2021/04/09 04:54:02;;;;;;;17.58;12.07;;;6.20;71.50;;;;;;5022743;28;20481;-48
2021/04/09 04:56:29;;;;;;;19.48;11.90;;;6.10;71.60;;;;;;5014683;28;20100;-49
2021/04/09 04:58:55;;;;;;;23.38;12.23;;;6.10;71.60;;;;;;5027041;28;20444;-48
2021/04/09 05:01:20;;;;;;;18.85;12.07;;;6.10;72.00;;;;;;5023452;28;20038;-47
2021/04/09 05:03:46;;;;;;;19.83;12.15;;;6.10;72.30;;;;;;5029062;28;20041;-48
2021/04/09 05:06:12;;;;;;;22.95;13.13;;;6.10;72.40;;;;;;5022533;28;20034;-51
2021/04/09 05:08:38;;;;;;;17.75;12.43;;;6.10;72.80;;;;;;5024484;28;20534;-50
2021/04/09 05:11:03;;;;;;;22.27;12.73;;;6.00;72.70;;;;;;5030949;28;20047;-49
2021/04/09 05:13:29;;;;;;;26.95;14.32;;;6.00;73.10;;;;;;5016321;28;20077;-50
2021/04/09 05:15:55;;;;;;;24.75;14.20;;;5.90;73.30;;;;;;5029771;28;20038;-48
2021/04/09 05:18:21;;;;;;;20.15;12.85;;;6.00;73.60;;;;;;5023111;28;21009;-48
2021/04/09 05:20:46;;;;;;;20.25;12.15;;;6.00;73.80;;;;;;5023753;28;20045;-48
2021/04/09 05:23:13;;;;;;;19.17;13.18;;;5.90;73.80;;;;;;5023791;28;20088;-48
2021/04/09 05:25:39;;;;;;;22.02;13.48;;;5.90;73.80;;;;;;5027942;28;20061;-48
2021/04/09 05:28:05;;;;;;;26.20;12.95;;;5.90;73.80;;;;;;5033063;28;20037;-49
2021/04/09 05:30:30;;;;;;;22.45;13.55;;;6.00;73.60;;;;;;5013047;28;20038;-48
2021/04/09 05:32:56;;;;;;;23.48;13.15;;;5.90;73.80;;;;;;5023671;28;20075;-48
2021/04/09 05:35:24;;;;;;;22.70;13.15;;;6.00;73.90;;;;;;5027170;28;21064;-49
2021/04/09 05:37:51;;;;;;;18.38;13.07;;;6.00;74.50;;;;;;5044810;28;20041;-48
2021/04/09 05:40:17;;;;;;;20.33;13.05;;;6.00;74.10;;;;;;5029524;28;20046;-48
2021/04/09 05:42:44;;;;;;;22.13;13.20;;;6.00;74.20;;;;;;5031932;28;20187;-47
2021/04/09 05:45:10;;;;;;;21.92;13.65;;;6.00;74.20;;;;;;5029516;28;20037;-48
2021/04/09 05:47:36;;;;;;;25.85;14.20;;;6.10;74.00;;;;;;5031859;28;20052;-48
2021/04/09 05:50:02;;;;;;;22.73;14.60;;;6.20;73.80;;;;;;5033779;28;20123;-52
2021/04/09 05:52:27;;;;;;;27.15;13.57;;;6.20;73.70;;;;;;5026216;28;20041;-49
2021/04/09 05:54:53;;;;;;;23.05;14.13;;;6.30;73.60;;;;;;5022183;28;20053;-48
2021/04/09 05:57:20;;;;;;;22.55;13.82;;;6.40;73.40;;;;;;5028087;28;20041;-50
2021/04/09 05:59:47;;;;;;;25.17;13.88;;;6.60;73.40;;;;;;5009997;28;20042;-50
2021/04/09 06:02:13;;;;;;;28.15;13.88;;;6.80;72.90;;;;;;5026347;28;20048;-49
2021/04/09 06:04:39;;;;;;;21.52;13.23;;;6.90;72.90;;;;;;5034355;28;20053;-48
2021/04/09 06:07:05;;;;;;;25.27;13.80;;;6.90;72.20;;;;;;5034137;28;20044;-47
2021/04/09 06:09:30;;;;;;;24.00;13.50;;;6.90;73.00;;;;;;5021710;28;20045;-47
2021/04/09 06:11:58;;;;;;;24.58;14.00;;;6.90;73.20;;;;;;5026843;28;20088;-48
2021/04/09 06:14:28;;;;;;;26.20;13.73;;;6.80;73.20;;;;;;5037312;28;20461;-48
2021/04/09 06:16:56;;;;;;;21.27;13.82;;;6.70;73.60;;;;;;5026194;28;20375;-48
2021/04/09 06:19:23;;;;;;;21.85;14.07;;;6.80;73.80;;;;;;5027615;28;20414;-48
2021/04/09 06:21:51;;;;;;;30.60;14.85;;;6.80;74.20;;;;;;5027162;28;20053;-49
2021/04/09 06:24:17;;;;;;;23.60;13.93;;;6.80;74.10;;;;;;5023825;28;20037;-46
2021/04/09 06:26:42;;;;;;;27.80;14.75;;;6.80;74.40;;;;;;5030161;28;20397;-48
2021/04/09 06:29:08;;;;;;;23.90;14.05;;;6.80;74.30;;;;;;5024060;28;20045;-49
2021/04/09 06:31:41;;;;;;;29.40;14.95;;;6.80;74.80;;;;;;5029994;28;20048;-49
2021/04/09 06:34:07;;;;;;;25.95;14.45;;;6.80;74.70;;;;;;5027160;28;20120;-50
2021/04/09 06:36:33;;;;;;;29.38;14.27;;;6.80;74.80;;;;;;5029577;28;20415;-48
2021/04/09 06:38:58;;;;;;;27.65;13.43;;;6.90;75.20;;;;;;5043460;28;20048;-48
2021/04/09 06:41:25;;;;;;;32.35;14.60;;;6.90;75.30;;;;;;5032303;28;20033;-49
2021/04/09 06:43:52;;;;;;;21.40;13.43;;;7.00;75.50;;;;;;5025762;28;20054;-50
2021/04/09 06:46:18;;;;;;;24.65;14.15;;;7.00;75.50;;;;;;5026613;28;20057;-49
2021/04/09 06:48:44;;;;;;;22.25;13.80;;;7.10;75.30;;;;;;5031395;28;20152;-48
2021/04/09 06:51:13;;;;;;;22.95;12.77;;;7.10;75.20;;;;;;5011240;28;20525;-51
2021/04/09 06:53:44;;;;;;;25.05;14.07;;;7.20;75.50;;;;;;5026001;28;20047;-49
2021/04/09 06:56:11;;;;;;;23.87;14.03;;;7.20;75.70;;;;;;5028579;28;20088;-50
2021/04/09 06:58:38;;;;;;;25.25;12.50;;;7.20;75.50;;;;;;5035405;28;20331;-50
2021/04/09 07:01:04;;;;;;;21.58;12.32;;;7.20;75.50;;;;;;5033253;28;20405;-47
2021/04/09 07:03:30;;;;;;;25.67;13.68;;;7.20;75.80;;;;;;5029487;28;20507;-48
2021/04/09 07:05:56;;;;;;;22.00;13.45;;;7.30;75.50;;;;;;5020340;28;20042;-48
2021/04/09 07:08:27;;;;;;;21.75;13.35;;;7.30;75.90;;;;;;5017833;28;20065;-51
2021/04/09 07:10:53;;;;;;;21.75;13.32;;;7.30;75.80;;;;;;5031993;28;20053;-51
2021/04/09 07:13:19;;;;;;;22.35;12.77;;;7.40;75.70;;;;;;5031856;28;20037;-51
2021/04/09 07:15:46;;;;;;;25.80;12.25;;;7.40;75.80;;;;;;5019568;28;20148;-51
2021/04/09 07:18:15;;;;;;;21.13;12.65;;;7.40;76.10;;;;;;5022719;28;20102;-51
2021/04/09 07:20:42;;;;;;;21.55;11.93;;;7.40;76.30;;;;;;5017797;28;20442;-49
2021/04/09 07:23:09;;;;;;;24.10;13.38;;;7.40;76.60;;;;;;5017416;28;20074;-47
2021/04/09 07:25:37;;;;;;;20.73;13.02;;;7.40;76.80;;;;;;5020987;28;20045;-48
2021/04/09 07:28:18;;;;;;;26.92;12.90;;;7.40;76.90;;;;;;5023546;28;20506;-50
2021/04/09 07:30:53;;;;;;;26.33;13.30;;;7.50;76.90;;;;;;5027809;28;20044;-49
2021/04/09 07:33:21;;;;;;;20.70;12.80;;;7.60;77.00;;;;;;5020932;28;20045;-46
2021/04/09 07:35:58;;;;;;;23.38;13.02;;;7.70;76.80;;;;;;5031727;28;20512;-53
2021/04/09 07:38:33;;;;;;;21.02;12.05;;;7.90;76.50;;;;;;5009129;28;20769;-49
2021/04/09 07:41:09;;;;;;;22.05;12.20;;;8.00;76.10;;;;;;5031470;28;20059;-48
2021/04/09 07:43:40;;;;;;;23.63;13.23;;;8.10;75.60;;;;;;5028206;28;20049;-48
2021/04/09 07:46:08;;;;;;;25.58;12.88;;;8.20;75.70;;;;;;5014701;28;20045;-48
2021/04/09 07:48:35;;;;;;;27.33;13.30;;;8.30;75.30;;;;;;5026137;28;20048;-49
2021/04/09 07:51:02;;;;;;;25.10;13.05;;;8.40;75.10;;;;;;5016464;28;20183;-47
2021/04/09 07:53:31;;;;;;;20.40;11.70;;;8.40;75.10;;;;;;5009978;28;20061;-51
2021/04/09 07:56:15;;;;;;;21.02;11.75;;;8.40;75.50;;;;;;5021085;28;20072;-47
2021/04/09 07:58:42;;;;;;;22.15;12.32;;;8.50;76.00;;;;;;5030488;28;20057;-51
2021/04/09 08:01:20;;;;;;;21.65;12.77;;;8.60;75.50;;;;;;5023140;28;20418;-48
2021/04/09 08:03:45;;;;;;;22.67;11.88;;;8.80;76.10;;;;;;5024842;28;20037;-53
2021/04/09 08:06:11;;;;;;;23.15;12.18;;;8.90;75.20;;;;;;5027700;28;20064;-50
2021/04/09 08:08:44;;;;;;;22.25;12.63;;;9.00;75.30;;;;;;5014816;28;20041;-48
2021/04/09 08:11:30;;;;;;;21.27;11.98;;;9.10;74.80;;;;;;5034404;28;20099;-48
2021/04/09 08:13:57;;;;;;;21.42;11.82;;;9.20;75.00;;;;;;5026906;28;20045;-51
2021/04/09 08:16:49;;;;;;;20.35;11.65;;;9.30;75.00;;;;;;5018689;28;20045;-47
2021/04/09 08:19:23;;;;;;;18.63;11.25;;;9.30;74.70;;;;;;5013052;28;20048;-48
2021/04/09 08:21:54;;;;;;;21.83;12.65;;;9.40;74.80;;;;;;5024571;28;20072;-49
2021/04/09 08:24:21;;;;;;;21.15;11.18;;;9.40;74.50;;;;;;5018778;28;20381;-49
2021/04/09 08:26:49;;;;;;;21.20;11.25;;;9.50;74.60;;;;;;5024761;28;20152;-52
2021/04/09 08:29:15;;;;;;;16.17;10.35;;;9.50;74.20;;;;;;5023357;28;20045;-48
2021/04/09 08:31:42;;;;;;;20.40;10.25;;;9.50;74.50;;;;;;5015039;28;20064;-49
2021/04/09 08:34:09;;;;;;;15.45;10.90;;;9.50;74.50;;;;;;5028822;28;20088;-47
2021/04/09 08:36:37;;;;;;;23.92;11.05;;;9.40;74.40;;;;;;5019088;28;20057;-49
2021/04/09 08:39:05;;;;;;;19.05;11.15;;;9.40;74.60;;;;;;5007678;28;20046;-49
2021/04/09 08:41:32;;;;;;;20.50;11.05;;;9.40;74.70;;;;;;5020183;28;20034;-49
2021/04/09 08:43:58;;;;;;;18.98;11.05;;;9.40;75.00;;;;;;5020854;28;20061;-49
2021/04/09 08:46:24;;;;;;;21.60;11.05;;;9.50;74.70;;;;;;5028479;28;20033;-51
2021/04/09 08:48:52;;;;;;;17.65;11.07;;;9.50;74.50;;;;;;5017122;28;20104;-51
2021/04/09 08:51:22;;;;;;;18.20;9.85;;;9.40;75.00;;;;;;5014133;28;20507;-48
2021/04/09 08:53:47;;;;;;;23.52;11.40;;;9.40;75.00;;;;;;5025214;28;20509;-48
2021/04/09 08:56:13;;;;;;;19.17;10.63;;;9.40;75.10;;;;;;5012529;28;20045;-49
2021/04/09 08:58:44;;;;;;;19.98;10.85;;;9.50;75.10;;;;;;5024971;28;20045;-51
2021/04/09 09:01:12;;;;;;;19.77;9.90;;;9.50;75.30;;;;;;5018436;28;20057;-49
2021/04/09 09:03:38;;;;;;;22.33;11.27;;;9.50;75.10;;;;;;5023171;28;20409;-50
2021/04/09 09:06:07;;;;;;;22.85;10.73;;;9.60;76.00;;;;;;5015725;28;21524;-48
2021/04/09 09:08:53;;;;;;;22.85;9.93;;;9.50;75.80;;;;;;5025085;28;20104;-49
2021/04/09 09:11:54;;;;;;;16.65;9.85;;;9.60;75.30;;;;;;5014672;28;20045;-48
2021/04/09 09:14:39;;;;;;;18.27;9.50;;;9.60;74.80;;;;;;5016838;28;20041;-51
2021/04/09 09:17:17;;;;;;;17.77;8.80;;;9.60;75.30;;;;;;5026417;28;20041;-50
2021/04/09 09:19:45;;;;;;;18.85;10.23;;;9.60;75.60;;;;;;5033498;28;20056;-49
2021/04/09 09:22:12;;;;;;;20.92;9.23;;;9.60;76.20;;;;;;5014609;28;20052;-48
2021/04/09 09:25:06;;;;;;;15.65;9.25;;;9.60;75.00;;;;;;5032809;28;20048;-49
2021/04/09 09:27:52;;;;;;;17.75;9.48;;;9.60;74.80;;;;;;5022477;28;20148;-52
2021/04/09 09:30:35;;;;;;;20.73;8.75;;;9.60;75.10;;;;;;5022278;28;20044;-50
2021/04/09 09:33:20;;;;;;;13.52;8.55;;;9.70;75.60;;;;;;5035154;28;20041;-49
2021/04/09 09:36:00;;;;;;;12.48;8.18;;;9.70;75.20;;;;;;5031538;28;20075;-48
2021/04/09 09:38:50;;;;;;;17.83;8.40;;;9.80;75.10;;;;;;5035536;28;20083;-48
2021/04/09 09:41:37;;;;;;;16.02;8.18;;;9.80;75.30;;;;;;5037933;28;20030;-49
2021/04/09 09:44:30;;;;;;;18.02;8.45;;;9.80;74.70;;;;;;5027676;28;20056;-49
2021/04/09 09:47:24;;;;;;;15.90;7.97;;;9.80;74.70;;;;;;5037853;28;20041;-49
2021/04/09 09:50:20;;;;;;;16.55;7.55;;;9.70;74.00;;;;;;5029536;28;20060;-49
2021/04/09 09:53:00;;;;;;;19.10;8.02;;;9.70;74.40;;;;;;5028815;28;20049;-49
2021/04/09 09:55:36;;;;;;;16.35;8.38;;;9.70;75.00;;;;;;5037710;28;20052;-50
2021/04/09 09:58:12;;;;;;;17.35;7.90;;;9.80;75.50;;;;;;5034361;28;20565;-48
2021/04/09 10:00:40;;;;;;;17.45;8.13;;;9.90;74.90;;;;;;5025005;28;20050;-51
2021/04/09 10:03:32;;;;;;;15.32;7.72;;;9.90;74.70;;;;;;5027354;28;20053;-49
2021/04/09 10:05:57;;;;;;;16.15;8.07;;;10.00;74.60;;;;;;5036564;28;20065;-48
2021/04/09 10:08:25;;;;;;;12.77;7.22;;;10.10;74.70;;;;;;5034986;28;20528;-51
2021/04/09 10:10:56;;;;;;;15.27;7.47;;;10.10;74.50;;;;;;5034212;28;20048;-49
2021/04/09 10:13:29;;;;;;;14.20;7.30;;;10.20;74.90;;;;;;5025418;28;20049;-48
2021/04/09 10:16:05;;;;;;;16.55;7.13;;;10.20;73.70;;;;;;5030123;28;20042;-49
2021/04/09 10:18:38;;;;;;;18.55;7.53;;;10.20;72.90;;;;;;5025078;28;20040;-49
2021/04/09 10:21:14;;;;;;;19.23;6.85;;;10.10;73.10;;;;;;5036207;28;20456;-50
2021/04/09 10:23:42;;;;;;;18.25;7.05;;;10.10;74.30;;;;;;5052908;28;20115;-51
2021/04/09 10:26:08;;;;;;;18.15;7.65;;;10.10;74.40;;;;;;5036499;28;20076;-48
2021/04/09 10:28:38;;;;;;;17.15;7.70;;;10.20;74.50;;;;;;5033879;28;20095;-48
2021/04/09 10:31:23;;;;;;;15.77;7.63;;;10.30;74.20;;;;;;5036832;28;20041;-49
2021/04/09 10:33:53;;;;;;;13.02;7.00;;;10.40;74.40;;;;;;5026479;28;20041;-49
2021/04/09 10:36:26;;;;;;;17.23;6.63;;;10.50;73.70;;;;;;5031013;28;20046;-51
2021/04/09 10:38:53;;;;;;;;;;;10.50;72.80;;;;;;5029317;28;20038;-49
2021/04/09 10:41:25;;;;;;;15.52;6.28;;;10.50;72.50;;;;;;5028424;28;19917;-48
2021/04/09 10:43:56;;;;;;;14.50;6.75;;;10.40;73.00;;;;;;5033170;28;20061;-48
2021/04/09 10:46:25;;;;;;;15.23;6.40;;;10.40;73.50;;;;;;5033122;28;20041;-49
2021/04/09 10:49:15;;;;;;;14.48;6.38;;;10.30;74.00;;;;;;5035499;28;20111;-48
2021/04/09 10:51:47;;;;;;;14.85;6.20;;;10.40;74.50;;;;;;5022065;28;20489;-48
2021/04/09 10:54:17;;;;;;;;;;;10.40;73.60;;;;;;5025896;28;20096;-49
2021/04/09 10:57:05;;;;;;;15.27;5.93;;;10.40;73.90;;;;;;5031738;28;20011;-48
2021/04/09 10:59:37;;;;;;;14.93;6.68;;;10.40;73.50;;;;;;5025337;28;20045;-48
2021/04/09 11:02:04;;;;;;;11.50;5.97;;;10.60;74.30;;;;;;5034515;28;20098;-48
2021/04/09 11:04:32;;;;;;;13.15;6.65;;;10.80;74.20;;;;;;5034044;28;20095;-51
2021/04/09 11:07:00;;;;;;;13.50;6.80;;;11.20;74.70;;;;;;5036795;28;20045;-49
2021/04/09 11:09:55;;;;;;;12.40;6.03;;;11.40;72.70;;;;;;5035407;28;20398;-49
2021/04/09 11:12:25;;;;;;;12.90;6.22;;;11.40;70.30;;;;;;5035977;28;20061;-49
2021/04/09 11:15:08;;;;;;;11.75;5.80;;;11.20;71.50;;;;;;5032668;28;20045;-49
2021/04/09 11:17:36;;;;;;;15.30;5.28;;;11.10;71.30;;;;;;5031455;28;20045;-49
2021/04/09 11:20:18;;;;;;;14.27;5.70;;;11.20;70.00;;;;;;5019201;28;20501;-51
2021/04/09 11:22:44;;;;;;;9.38;5.22;;;10.90;70.00;;;;;;5019901;28;20088;-48
2021/04/09 11:25:10;;;;;;;16.40;6.28;;;10.90;71.20;;;;;;5027376;28;20041;-49
2021/04/09 11:27:41;;;;;;;11.75;4.93;;;10.80;71.50;;;;;;5044228;28;20037;-49
2021/04/09 11:30:15;;;;;;;12.15;5.68;;;10.80;70.80;;;;;;5032877;28;20037;-49
2021/04/09 11:32:49;;;;;;;14.70;5.93;;;10.80;71.10;;;;;;5034721;28;20052;-51
2021/04/09 11:35:19;;;;;;;14.07;5.93;;;10.80;72.30;;;;;;5028315;28;20456;-51
2021/04/09 11:37:53;;;;;;;14.80;6.35;;;10.90;72.60;;;;;;5025772;28;20086;-50
2021/04/09 11:40:42;;;;;;;12.98;5.43;;;10.90;72.00;;;;;;5032856;28;20091;-51
2021/04/09 11:43:10;;;;;;;12.23;4.95;;;11.00;71.70;;;;;;5031421;28;20065;-49
2021/04/09 11:45:43;;;;;;;13.85;4.90;;;11.20;70.60;;;;;;5025400;28;20517;-48
2021/04/09 11:48:28;;;;;;;12.45;5.78;;;11.30;71.30;;;;;;5025213;28;20049;-50
2021/04/09 11:51:14;;;;;;;11.38;4.60;;;11.30;70.40;;;;;;5019331;28;20033;-48
2021/04/09 11:53:40;;;;;;;12.15;4.40;;;11.20;69.90;;;;;;5030883;28;20099;-49
2021/04/09 11:56:06;;;;;;;11.50;4.88;;;11.10;70.00;;;;;;5035795;28;20033;-48
2021/04/09 11:58:41;;;;;;;9.52;4.15;;;11.20;69.60;;;;;;5033408;28;20049;-49
2021/04/09 12:01:07;;;;;;;15.00;4.78;;;11.30;69.70;;;;;;5028226;28;20457;-49
2021/04/09 12:03:37;;;;;;;12.05;5.13;;;11.50;69.90;;;;;;5019649;28;20048;-48
2021/04/09 12:06:15;;;;;;;10.82;4.32;;;11.70;70.00;;;;;;5021799;28;20037;-48
2021/04/09 12:08:41;;;;;;;10.48;5.15;;;11.90;68.10;;;;;;5030285;28;20128;-50
2021/04/09 12:11:08;;;;;;;7.90;4.65;;;11.90;67.20;;;;;;5030846;28;20124;-53
2021/04/09 12:13:39;;;;;;;12.55;5.18;;;12.00;66.70;;;;;;5024878;28;20061;-50
2021/04/09 12:16:11;;;;;;;10.27;5.60;;;12.10;66.00;;;;;;5027077;28;20073;-50
2021/04/09 12:18:38;;;;;;;12.65;5.53;;;11.90;66.20;;;;;;5042198;28;20041;-49
2021/04/09 12:21:04;;;;;;;12.73;5.63;;;11.60;65.50;;;;;;5027974;28;20083;-48
2021/04/09 12:23:30;;;;;;;14.25;6.07;;;11.50;67.60;;;;;;5036352;28;20033;-49
2021/04/09 12:25:57;;;;;;;15.15;6.22;;;11.30;69.50;;;;;;5027622;28;20109;-49
2021/04/09 12:28:24;;;;;;;17.15;6.82;;;11.10;70.80;;;;;;5025643;28;20034;-50
2021/04/09 12:30:51;;;;;;;14.52;6.50;;;11.00;71.20;;;;;;5012278;28;20045;-52
2021/04/09 12:33:17;;;;;;;16.20;6.55;;;11.00;71.10;;;;;;5021381;28;20179;-48
2021/04/09 12:35:43;;;;;;;9.52;5.60;;;11.00;70.70;;;;;;5032147;28;20045;-48
2021/04/09 12:38:12;;;;;;;15.25;6.13;;;11.00;69.70;;;;;;5035328;28;20040;-48
2021/04/09 12:40:37;;;;;;;15.25;5.88;;;11.00;70.10;;;;;;5047370;28;20049;-50
2021/04/09 12:43:06;;;;;;;12.63;6.57;;;11.10;70.00;;;;;;5032668;28;20043;-50
2021/04/09 12:45:31;;;;;;;13.55;6.82;;;11.20;69.90;;;;;;5031999;28;20050;-52
2021/04/09 12:47:57;;;;;;;13.00;5.38;;;11.30;69.70;;;;;;5018548;28;20504;-49
2021/04/09 12:50:23;;;;;;;10.40;5.45;;;11.40;68.00;;;;;;5021275;28;20045;-52
2021/04/09 12:52:54;;;;;;;11.38;5.53;;;11.50;67.70;;;;;;5015574;28;20042;-49